Time;durP1;ratioP1;P1;durP2;ratioP2;P2;SDS_P1;SDS_P2;PMS_P1;PMS_P2;Temp;Humidity;BMP_temperature;BMP_pressure;BME280_temperature;BME280_humidity;BME280_pressure;Samples;Min_cycle;Max_cycle;Signal;HPM_P1;HPM_P2
2022/01/07 00:00:06;;;;;;;10.10;6.60;;;;;;;5.97;62.86;100467.02;117358;1185;21904;-56
2022/01/07 00:02:35;;;;;;;10.10;7.00;;;;;;;5.94;63.01;100470.83;117377;1185;22924;-57
2022/01/07 00:05:05;;;;;;;9.60;6.80;;;;;;;5.93;62.88;100472.89;117432;1185;22925;-56
2022/01/07 00:07:34;;;;;;;13.70;7.80;;;;;;;5.93;62.93;100468.54;117395;1182;24248;-56
2022/01/07 00:10:03;;;;;;;12.00;7.40;;;;;;;5.91;63.05;100473.94;117373;1185;21852;-55
2022/01/07 00:12:31;;;;;;;9.60;6.70;;;;;;;5.88;62.95;100479.30;117452;1185;21860;-64
2022/01/07 00:14:59;;;;;;;11.90;7.20;;;;;;;5.85;62.86;100478.75;117425;1183;23588;-63
2022/01/07 00:17:28;;;;;;;13.90;8.10;;;;;;;5.83;62.69;100485.70;117414;1182;23519;-56
2022/01/07 00:19:56;;;;;;;12.20;8.00;;;;;;;5.81;62.85;100491.09;117375;1182;24021;-56
2022/01/07 00:22:24;;;;;;;11.70;7.70;;;;;;;5.77;62.68;100500.09;117421;1185;21873;-55
2022/01/07 00:24:52;;;;;;;13.50;8.80;;;;;;;5.69;62.76;100512.58;117427;1186;22806;-62
2022/01/07 00:27:20;;;;;;;11.40;8.00;;;;;;;5.64;62.81;100516.69;117343;1184;21903;-55
2022/01/07 00:29:52;;;;;;;12.20;8.80;;;;;;;5.59;62.89;100515.41;117402;1185;23572;-63
2022/01/07 00:32:20;;;;;;;13.80;8.90;;;;;;;5.58;62.56;100516.80;117461;1182;23575;-55
2022/01/07 00:34:48;;;;;;;15.20;10.60;;;;;;;5.45;63.03;100516.32;117421;1185;23013;-63
2022/01/07 00:37:16;;;;;;;13.60;9.80;;;;;;;5.36;63.00;100514.46;117467;1176;21855;-63
2022/01/07 00:39:45;;;;;;;16.40;11.30;;;;;;;5.33;63.14;100514.63;117400;1180;22947;-64
2022/01/07 00:42:13;;;;;;;16.20;11.50;;;;;;;5.37;62.85;100512.23;117427;1182;24291;-55
2022/01/07 00:44:42;;;;;;;15.60;11.40;;;;;;;5.33;63.01;100509.73;117400;1180;21891;-64
2022/01/07 00:47:10;;;;;;;18.80;12.60;;;;;;;5.35;63.21;100506.80;117441;1182;22695;-64
2022/01/07 00:49:38;;;;;;;16.70;12.00;;;;;;;5.36;62.93;100515.34;117429;1182;23605;-55
2022/01/07 00:52:06;;;;;;;20.40;13.70;;;;;;;5.26;63.17;100522.20;117353;1186;21899;-63
2022/01/07 00:54:35;;;;;;;18.00;13.30;;;;;;;5.21;63.30;100526.50;117356;1185;22039;-64
2022/01/07 00:57:04;;;;;;;21.30;14.80;;;;;;;5.18;63.06;100528.53;117420;1185;21842;-56
2022/01/07 00:59:32;;;;;;;19.30;13.90;;;;;;;5.14;63.18;100528.14;117429;1185;23627;-64
2022/01/07 01:02:00;;;;;;;19.60;15.40;;;;;;;5.14;63.15;100532.65;117348;1183;23588;-56
2022/01/07 01:04:43;;;;;;;20.90;15.20;;;;;;;5.10;63.07;100525.83;117368;1185;23628;-56
2022/01/07 01:07:12;;;;;;;22.00;14.90;;;;;;;5.08;63.23;100529.11;117450;1185;21919;-55
2022/01/07 01:09:40;;;;;;;20.80;14.80;;;;;;;5.03;63.20;100532.02;117466;1185;22921;-56
2022/01/07 01:12:27;;;;;;;20.90;13.80;;;;;;;4.98;63.03;100535.77;117356;1182;23632;-64
2022/01/07 01:14:56;;;;;;;19.90;13.80;;;;;;;4.95;63.22;100532.94;117383;1180;21836;-56
2022/01/07 01:17:24;;;;;;;19.00;13.30;;;;;;;4.90;63.25;100536.01;117338;1185;23583;-64
2022/01/07 01:19:53;;;;;;;18.60;12.70;;;;;;;4.86;63.31;100534.73;117412;1176;23050;-55
2022/01/07 01:22:21;;;;;;;17.60;13.50;;;;;;;4.83;63.44;100532.45;117400;1182;21987;-55
2022/01/07 01:24:49;;;;;;;17.60;13.00;;;;;;;4.78;63.21;100534.13;117394;1180;21854;-64
2022/01/07 01:27:17;;;;;;;18.10;13.60;;;;;;;4.74;63.19;100542.05;117458;1183;21860;-55
2022/01/07 01:29:46;;;;;;;16.00;12.70;;;;;;;4.67;63.31;100543.85;117468;1185;23221;-64
2022/01/07 01:32:16;;;;;;;20.00;15.10;;;;;;;4.60;63.23;100542.56;117395;1185;24158;-56
2022/01/07 01:34:44;;;;;;;17.90;13.70;;;;;;;4.57;63.01;100547.20;117367;1182;23553;-55
2022/01/07 01:37:13;;;;;;;19.80;14.40;;;;;;;4.53;63.24;100557.03;117335;1184;21846;-63
2022/01/07 01:39:41;;;;;;;18.80;14.30;;;;;;;4.52;63.20;100555.63;117334;1185;23471;-64
2022/01/07 01:42:09;;;;;;;18.50;14.20;;;;;;;4.54;62.97;100561.23;117441;1182;23987;-64
2022/01/07 01:44:38;;;;;;;20.10;15.30;;;;;;;4.53;63.23;100567.48;117430;1180;21898;-55
2022/01/07 01:47:06;;;;;;;24.20;15.30;;;;;;;4.50;63.11;100573.33;117511;1182;21852;-56
2022/01/07 01:49:34;;;;;;;24.70;16.30;;;;;;;4.48;63.12;100571.20;117460;1182;21845;-55
2022/01/07 01:52:04;;;;;;;20.40;14.60;;;;;;;4.46;63.15;100573.42;117480;1183;21856;-64
2022/01/07 01:54:31;;;;;;;21.40;15.90;;;;;;;4.42;63.31;100582.94;117371;1183;22922;-56
2022/01/07 01:57:00;;;;;;;23.50;16.50;;;;;;;4.44;63.37;100587.99;117429;1182;21883;-64
2022/01/07 01:59:29;;;;;;;23.50;16.40;;;;;;;4.45;63.33;100587.15;117423;1183;21863;-64
2022/01/07 02:01:57;;;;;;;21.60;15.50;;;;;;;4.47;63.12;100590.48;117442;1185;22994;-63
2022/01/07 02:04:25;;;;;;;22.20;15.60;;;;;;;4.46;63.08;100591.16;117417;1185;21850;-56
2022/01/07 02:06:53;;;;;;;24.50;15.50;;;;;;;4.42;63.24;100589.01;117479;1176;21873;-64
2022/01/07 02:09:29;;;;;;;22.20;15.90;;;;;;;4.40;63.18;100594.55;117488;1185;22929;-64
2022/01/07 02:11:58;;;;;;;23.80;16.90;;;;;;;4.38;63.23;100602.67;117418;1184;21876;-64
2022/01/07 02:14:26;;;;;;;21.80;16.00;;;;;;;4.36;63.29;100605.07;117450;1185;21989;-56
2022/01/07 02:16:54;;;;;;;20.80;15.30;;;;;;;4.32;63.18;100600.15;117394;1185;24166;-56
2022/01/07 02:19:22;;;;;;;20.30;15.10;;;;;;;4.28;63.03;100603.20;117443;1186;21846;-56
2022/01/07 02:21:50;;;;;;;19.90;14.70;;;;;;;4.22;63.23;100594.23;117416;1185;21856;-64
2022/01/07 02:24:18;;;;;;;20.70;15.00;;;;;;;4.19;63.30;100591.40;117422;1183;23461;-55
2022/01/07 02:26:47;;;;;;;20.20;15.30;;;;;;;4.20;63.25;100599.58;117492;1182;23477;-56
2022/01/07 02:29:15;;;;;;;19.20;13.80;;;;;;;4.17;63.13;100607.90;117392;1185;21843;-64
2022/01/07 02:31:43;;;;;;;19.30;13.20;;;;;;;4.16;63.36;100620.38;117397;1185;23608;-55
2022/01/07 02:34:11;;;;;;;20.40;14.20;;;;;;;4.16;63.13;100625.25;117403;1185;21857;-56
2022/01/07 02:36:39;;;;;;;18.10;13.10;;;;;;;4.18;63.23;100636.57;117446;1185;21873;-65
2022/01/07 02:39:07;;;;;;;16.70;12.60;;;;;;;4.16;63.05;100634.27;117355;1180;23903;-55
2022/01/07 02:41:36;;;;;;;17.90;13.10;;;;;;;4.13;62.92;100640.29;117358;1183;23680;-65
2022/01/07 02:44:04;;;;;;;17.70;12.40;;;;;;;4.10;63.12;100650.83;117415;1186;22969;-64
2022/01/07 02:46:32;;;;;;;16.50;12.50;;;;;;;4.09;63.01;100656.36;117440;1185;24292;-55
2022/01/07 02:49:12;;;;;;;20.80;14.00;;;;;;;4.05;63.16;100653.50;117419;1186;21886;-64
2022/01/07 02:51:40;;;;;;;19.60;14.30;;;;;;;4.01;63.01;100654.98;117379;1183;22619;-64
2022/01/07 02:54:08;;;;;;;17.60;13.50;;;;;;;3.97;63.07;100658.77;117427;1182;23635;-56
2022/01/07 02:56:37;;;;;;;19.80;14.60;;;;;;;3.96;63.22;100660.82;117430;1182;23574;-64
2022/01/07 02:59:05;;;;;;;18.30;13.80;;;;;;;3.97;63.34;100662.74;117450;1185;21854;-64
2022/01/07 03:01:35;;;;;;;18.90;13.70;;;;;;;3.98;63.26;100663.10;117416;1185;22988;-56
2022/01/07 03:04:04;;;;;;;18.20;13.40;;;;;;;3.99;63.30;100669.71;117458;1182;23547;-64
2022/01/07 03:06:32;;;;;;;20.50;12.80;;;;;;;3.98;63.33;100673.01;117460;1186;22177;-55
2022/01/07 03:09:00;;;;;;;18.70;12.90;;;;;;;3.99;63.31;100678.92;117349;1185;23575;-64
2022/01/07 03:11:28;;;;;;;19.80;13.90;;;;;;;3.99;63.46;100680.66;117338;1186;23465;-56
2022/01/07 03:13:56;;;;;;;21.20;13.50;;;;;;;4.02;63.42;100689.59;117389;1182;22673;-55
2022/01/07 03:16:44;;;;;;;18.70;13.30;;;;;;;4.04;63.35;100693.59;117364;1186;21854;-55
2022/01/07 03:19:13;;;;;;;17.80;13.10;;;;;;;4.07;63.43;100692.09;117376;1182;21888;-56
2022/01/07 03:21:41;;;;;;;17.60;12.80;;;;;;;4.09;63.47;100694.05;117326;1183;21860;-55
2022/01/07 03:24:09;;;;;;;18.90;12.90;;;;;;;4.09;63.35;100697.89;117313;1177;21899;-56
2022/01/07 03:26:37;;;;;;;17.90;12.70;;;;;;;4.19;63.23;100708.49;117376;1186;23462;-65
2022/01/07 03:29:05;;;;;;;16.00;11.60;;;;;;;4.30;62.92;100711.30;117388;1182;23445;-64
2022/01/07 03:31:33;;;;;;;16.70;12.40;;;;;;;4.31;63.20;100714.44;117385;1182;23448;-65
2022/01/07 03:34:02;;;;;;;18.50;12.80;;;;;;;4.25;63.18;100717.98;117416;1182;23475;-65
2022/01/07 03:36:32;;;;;;;15.50;12.40;;;;;;;4.30;63.28;100722.77;117441;1185;22746;-64
2022/01/07 03:39:02;;;;;;;17.30;12.40;;;;;;;4.40;63.18;100733.73;117438;1185;23452;-55
2022/01/07 03:41:31;;;;;;;18.20;11.90;;;;;;;4.47;63.03;100738.36;117458;1185;23346;-55
2022/01/07 03:43:59;;;;;;;15.90;11.80;;;;;;;4.51;63.03;100739.66;117443;1182;23475;-64
2022/01/07 03:46:28;;;;;;;14.90;10.90;;;;;;;4.55;62.99;100740.95;117421;1182;22888;-64
2022/01/07 03:48:56;;;;;;;16.40;11.00;;;;;;;4.59;62.94;100739.98;117398;1185;21978;-64
2022/01/07 03:51:24;;;;;;;18.70;10.90;;;;;;;4.63;63.01;100740.23;117399;1176;21978;-64
2022/01/07 03:53:52;;;;;;;16.60;10.40;;;;;;;4.69;62.84;100753.88;117457;1185;23448;-56
2022/01/07 03:56:21;;;;;;;14.10;10.50;;;;;;;4.71;63.07;100758.44;117314;1184;21845;-64
2022/01/07 03:58:49;;;;;;;15.30;10.90;;;;;;;4.69;63.02;100760.48;117398;1186;21944;-55
2022/01/07 04:01:18;;;;;;;16.80;10.50;;;;;;;4.71;62.92;100763.30;117390;1180;23979;-64
2022/01/07 04:03:46;;;;;;;14.80;10.60;;;;;;;4.72;62.95;100767.67;117414;1186;21854;-64
2022/01/07 04:06:20;;;;;;;18.80;10.80;;;;;;;4.71;62.98;100771.83;117409;1185;24155;-56
2022/01/07 04:08:48;;;;;;;15.50;10.70;;;;;;;4.72;62.87;100784.02;117356;1186;23316;-64
2022/01/07 04:11:31;;;;;;;13.30;9.60;;;;;;;4.72;62.85;100786.11;117362;1189;21851;-65
2022/01/07 04:14:00;;;;;;;15.30;11.10;;;;;;;4.75;62.75;100792.26;117413;1185;21854;-56
2022/01/07 04:16:31;;;;;;;16.50;11.50;;;;;;;4.79;62.84;100791.45;117393;1182;23574;-56
2022/01/07 04:18:59;;;;;;;16.10;11.70;;;;;;;4.81;62.95;100788.52;117420;1185;23465;-56
2022/01/07 04:21:28;;;;;;;16.40;11.50;;;;;;;4.85;62.74;100791.55;117399;1185;21852;-56
2022/01/07 04:23:56;;;;;;;17.10;11.20;;;;;;;4.86;62.85;100793.30;117392;1182;24165;-64
2022/01/07 04:26:24;;;;;;;17.60;11.50;;;;;;;4.89;62.62;100803.45;117423;1186;23449;-57
2022/01/07 04:28:53;;;;;;;19.90;12.00;;;;;;;4.89;62.79;100802.58;117372;1185;21855;-56
2022/01/07 04:31:21;;;;;;;15.70;11.20;;;;;;;4.91;62.85;100807.48;117428;1185;22176;-56
2022/01/07 04:33:50;;;;;;;16.60;11.30;;;;;;;4.95;62.88;100809.96;117394;1186;21892;-65
2022/01/07 04:36:18;;;;;;;17.70;11.90;;;;;;;4.96;62.65;100820.62;117462;1186;22623;-65
2022/01/07 04:38:46;;;;;;;15.70;11.60;;;;;;;4.98;62.76;100825.36;117363;1185;21900;-56
2022/01/07 04:41:15;;;;;;;16.30;11.10;;;;;;;5.02;62.61;100826.81;117378;1185;21908;-55
2022/01/07 04:43:43;;;;;;;16.30;10.40;;;;;;;4.99;62.60;100831.63;117419;1186;23602;-56
2022/01/07 04:46:11;;;;;;;16.80;11.80;;;;;;;4.89;62.87;100835.09;117470;1180;22423;-64
2022/01/07 04:48:40;;;;;;;14.30;9.80;;;;;;;4.83;62.95;100840.55;117484;1185;23710;-63
2022/01/07 04:51:08;;;;;;;13.90;10.10;;;;;;;4.83;62.80;100845.77;117397;1185;23336;-64
2022/01/07 04:53:36;;;;;;;15.30;10.10;;;;;;;4.82;63.00;100842.10;117388;1185;21967;-55
2022/01/07 04:56:04;;;;;;;14.60;10.10;;;;;;;4.83;63.12;100841.27;117423;1185;23598;-64
2022/01/07 04:58:33;;;;;;;14.60;10.80;;;;;;;4.82;62.85;100841.23;117384;1183;23553;-64
2022/01/07 05:01:01;;;;;;;13.90;9.50;;;;;;;4.80;62.97;100840.84;117387;1185;21833;-55
2022/01/07 05:03:30;;;;;;;16.30;10.70;;;;;;;4.77;62.91;100847.05;117463;1186;23628;-55
2022/01/07 05:06:43;;;;;;;15.90;9.80;;;;;;;4.74;62.92;100854.99;117406;1186;21873;-64
2022/01/07 05:08:59;;;;;;;14.10;9.70;;;;;;;4.71;63.13;100855.79;117320;1185;24158;-55
2022/01/07 05:11:28;;;;;;;17.40;9.80;;;;;;;4.69;62.97;100853.66;117405;1185;23453;-56
2022/01/07 05:13:56;;;;;;;14.30;9.80;;;;;;;4.68;62.95;100856.43;117412;1182;23580;-62
2022/01/07 05:16:26;;;;;;;13.30;9.60;;;;;;;4.67;63.16;100855.72;117421;1185;22320;-56
2022/01/07 05:18:55;;;;;;;11.60;8.80;;;;;;;4.68;62.96;100863.39;117406;1183;22922;-64
2022/01/07 05:21:23;;;;;;;16.10;9.50;;;;;;;4.69;63.10;100866.02;117357;1185;22005;-59
2022/01/07 05:23:51;;;;;;;11.20;8.10;;;;;;;4.68;63.07;100877.30;117344;1185;21882;-64
2022/01/07 05:26:19;;;;;;;15.00;9.50;;;;;;;4.69;62.97;100877.48;117394;1185;23471;-56
2022/01/07 05:28:48;;;;;;;13.80;8.60;;;;;;;4.69;63.20;100882.88;117365;1185;21855;-56
2022/01/07 05:31:20;;;;;;;12.30;8.50;;;;;;;4.69;63.15;100884.09;117411;1182;21851;-64
2022/01/07 05:33:51;;;;;;;11.90;8.20;;;;;;;4.68;63.04;100894.33;117418;1176;21867;-65
2022/01/07 05:36:20;;;;;;;10.90;8.10;;;;;;;4.65;62.80;100900.18;117396;1185;22168;-66
2022/01/07 05:38:48;;;;;;;12.00;8.70;;;;;;;4.61;63.03;100905.86;117416;1180;23471;-64
2022/01/07 05:41:16;;;;;;;16.30;8.50;;;;;;;4.61;62.97;100912.27;117378;1185;22672;-55
2022/01/07 05:43:45;;;;;;;12.30;8.20;;;;;;;4.55;62.96;100922.93;117422;1185;23560;-67
2022/01/07 05:46:15;;;;;;;12.10;8.60;;;;;;;4.50;63.02;100928.21;117397;1183;22943;-55
2022/01/07 05:48:46;;;;;;;12.60;8.40;;;;;;;4.50;62.94;100929.41;117399;1185;22925;-55
2022/01/07 05:51:14;;;;;;;12.90;8.20;;;;;;;4.49;62.94;100944.85;117431;1183;23012;-64
2022/01/07 05:53:42;;;;;;;12.10;8.10;;;;;;;4.44;62.98;100951.19;117344;1185;21855;-64
2022/01/07 05:56:11;;;;;;;12.70;8.40;;;;;;;4.41;62.98;100959.98;117407;1189;23456;-64
2022/01/07 05:58:39;;;;;;;10.80;7.50;;;;;;;4.38;63.08;100961.67;117388;1182;21859;-64
2022/01/07 06:01:11;;;;;;;11.90;8.30;;;;;;;4.34;63.04;100963.48;117312;1183;23445;-56
2022/01/07 06:03:40;;;;;;;13.50;9.10;;;;;;;4.30;62.79;100965.83;118623;1185;24156;-64
2022/01/07 06:06:08;;;;;;;12.10;7.70;;;;;;;4.25;62.75;100968.66;117361;1185;24142;-64
2022/01/07 06:08:37;;;;;;;10.60;7.80;;;;;;;4.19;62.79;100975.83;117447;1185;23467;-55
2022/01/07 06:11:05;;;;;;;10.70;7.50;;;;;;;4.15;62.75;100980.26;117437;1181;23471;-56
2022/01/07 06:13:36;;;;;;;;;;;;;;;4.09;62.66;100985.67;117376;1183;23476;-65
2022/01/07 06:16:04;;;;;;;11.20;7.40;;;;;;;4.06;62.88;100990.98;117385;1185;21886;-55
2022/01/07 06:18:33;;;;;;;10.20;6.80;;;;;;;4.03;63.02;100994.20;119465;1180;21778;-64
2022/01/07 06:21:01;;;;;;;10.20;7.00;;;;;;;4.00;62.92;101000.38;118448;1182;22712;-63
2022/01/07 06:23:29;;;;;;;10.50;6.10;;;;;;;3.98;62.95;101003.11;119213;1185;22169;-64
2022/01/07 06:25:57;;;;;;;9.50;6.90;;;;;;;3.98;62.83;101008.15;117426;1182;23573;-64
2022/01/07 06:28:26;;;;;;;11.70;6.00;;;;;;;4.02;62.79;101008.06;117439;1186;21854;-55
2022/01/07 06:30:55;;;;;;;9.60;6.10;;;;;;;4.03;62.84;101012.77;117332;1180;21854;-55
2022/01/07 06:33:23;;;;;;;8.30;5.10;;;;;;;4.01;62.96;101015.17;119450;1184;21781;-65
2022/01/07 06:35:50;;;;;;;8.20;4.90;;;;;;;4.01;63.00;101017.42;118720;1186;21861;-65
2022/01/07 06:38:19;;;;;;;7.30;4.80;;;;;;;4.04;63.06;101023.74;117293;1186;23576;-63
2022/01/07 06:40:48;;;;;;;7.60;4.50;;;;;;;4.07;62.84;101025.72;117363;1185;24169;-65
2022/01/07 06:43:16;;;;;;;7.70;4.60;;;;;;;4.13;62.81;101033.51;117388;1185;21858;-65
2022/01/07 06:45:44;;;;;;;6.60;3.80;;;;;;;4.18;63.01;101041.46;117360;1185;21862;-55
2022/01/07 06:48:12;;;;;;;6.50;3.70;;;;;;;4.21;62.77;101042.57;117450;1185;21861;-54
2022/01/07 06:50:41;;;;;;;7.60;3.50;;;;;;;4.25;62.90;101049.97;117338;1185;21852;-56
2022/01/07 06:53:09;;;;;;;4.80;3.20;;;;;;;4.27;62.75;101056.61;117489;1185;22925;-66
2022/01/07 06:55:57;;;;;;;5.50;3.40;;;;;;;4.28;62.89;101064.47;117337;1185;21854;-64
2022/01/07 06:58:25;;;;;;;6.80;4.00;;;;;;;4.29;62.86;101071.98;117380;1186;23570;-65
2022/01/07 07:00:53;;;;;;;6.90;3.90;;;;;;;4.35;62.97;101077.14;117428;1182;23552;-55
2022/01/07 07:03:22;;;;;;;6.00;3.40;;;;;;;4.38;63.03;101078.27;117642;1185;23480;-56
2022/01/07 07:05:51;;;;;;;5.40;3.80;;;;;;;4.41;62.86;101084.41;117404;1185;23448;-64
2022/01/07 07:08:19;;;;;;;5.40;3.90;;;;;;;4.53;62.86;101087.82;117371;1186;21966;-56
2022/01/07 07:10:48;;;;;;;5.50;3.20;;;;;;;4.60;62.83;101084.86;117432;1182;21869;-62
2022/01/07 07:13:17;;;;;;;5.60;3.30;;;;;;;4.65;62.86;101085.48;117424;1185;21854;-56
2022/01/07 07:15:45;;;;;;;4.00;2.70;;;;;;;4.72;62.98;101085.65;117342;1185;23630;-56
2022/01/07 07:18:21;;;;;;;5.90;2.90;;;;;;;4.77;62.84;101087.18;117327;1182;23587;-63
2022/01/07 07:20:49;;;;;;;3.70;2.50;;;;;;;4.83;63.04;101089.23;117388;1185;23471;-56
2022/01/07 07:23:17;;;;;;;4.50;2.50;;;;;;;4.90;62.78;101086.77;117412;1186;21897;-56
2022/01/07 07:25:47;;;;;;;4.80;2.40;;;;;;;4.96;62.94;101085.15;117395;1185;21852;-57
2022/01/07 07:28:15;;;;;;;4.10;2.10;;;;;;;4.96;63.05;101086.54;117425;1183;21855;-62
2022/01/07 07:30:43;;;;;;;4.50;2.00;;;;;;;4.98;62.75;101087.10;117458;1181;23613;-56
2022/01/07 07:38:40;;;;;;;3.20;1.80;;;;;;;5.01;62.72;101101.62;117422;1182;23514;-66
2022/01/07 07:41:11;;;;;;;4.00;2.00;;;;;;;5.00;62.68;101104.91;117336;1185;23445;-66
2022/01/07 07:43:40;;;;;;;15.00;6.70;;;;;;;5.03;62.81;101114.86;117382;1185;21855;-66
2022/01/07 07:46:09;;;;;;;6.90;3.50;;;;;;;5.08;63.10;101116.20;117479;1184;21936;-64
2022/01/07 07:48:37;;;;;;;4.00;2.00;;;;;;;5.14;62.86;101118.77;119469;1184;21779;-56
2022/01/07 07:51:05;;;;;;;3.10;1.80;;;;;;;5.23;62.96;101117.92;119463;1185;21872;-56
2022/01/07 07:53:33;;;;;;;4.20;1.80;;;;;;;5.33;62.81;101124.39;117782;1185;21855;-63
2022/01/07 07:56:05;;;;;;;3.10;1.70;;;;;;;5.37;62.77;101129.71;117386;1186;22906;-56
2022/01/07 07:58:33;;;;;;;2.90;1.50;;;;;;;5.44;62.78;101136.10;117409;1182;23613;-56
2022/01/07 08:01:01;;;;;;;2.70;1.40;;;;;;;5.51;62.82;101139.40;117336;1185;24299;-66
2022/01/07 08:03:31;;;;;;;4.20;1.30;;;;;;;5.60;62.85;101142.69;117468;1185;21928;-65
2022/01/07 08:05:59;;;;;;;3.30;1.60;;;;;;;5.66;62.96;101148.05;117403;1185;24181;-57
2022/01/07 08:08:28;;;;;;;2.20;1.20;;;;;;;5.71;62.79;101149.89;117432;1185;22625;-65
2022/01/07 08:10:59;;;;;;;3.50;1.40;;;;;;;5.79;62.88;101152.65;117429;1185;22042;-65
2022/01/07 08:13:30;;;;;;;2.30;1.20;;;;;;;5.85;62.65;101152.77;117416;1185;23468;-56
2022/01/07 08:16:01;;;;;;;2.80;1.20;;;;;;;5.90;62.56;101152.87;117370;1185;23457;-65
2022/01/07 08:18:37;;;;;;;2.40;1.10;;;;;;;5.90;62.53;101148.70;117446;1182;21845;-58
2022/01/07 08:21:07;;;;;;;2.50;1.20;;;;;;;5.93;62.69;101142.13;117326;1185;22925;-56
2022/01/07 08:23:38;;;;;;;2.60;1.20;;;;;;;5.97;62.91;101144.99;117405;1186;23576;-66
2022/01/07 08:26:08;;;;;;;3.10;1.20;;;;;;;6.06;62.78;101146.23;117352;1182;21857;-57
2022/01/07 08:28:42;;;;;;;2.50;1.10;;;;;;;6.10;62.76;101152.59;117445;1186;23120;-56
2022/01/07 08:36:29;;;;;;;4.70;1.80;;;;;;;6.27;62.86;101151.31;117340;1185;21855;-56
2022/01/07 08:38:58;;;;;;;8.60;3.20;;;;;;;6.27;62.99;101150.43;117396;1182;22924;-56
2022/01/07 08:41:27;;;;;;;5.00;2.20;;;;;;;6.25;62.64;101149.36;117496;1182;23551;-57
2022/01/07 08:43:56;;;;;;;20.60;6.90;;;;;;;6.32;62.83;101141.30;117376;1186;21847;-66
2022/01/07 08:46:24;;;;;;;7.00;2.70;;;;;;;6.38;63.14;101142.61;117397;1185;21850;-64
2022/01/07 08:48:53;;;;;;;3.60;1.80;;;;;;;6.42;62.79;101148.08;117451;1183;22763;-57
2022/01/07 08:51:21;;;;;;;2.80;1.20;;;;;;;6.43;62.61;101140.42;117439;1186;22995;-55
2022/01/07 08:53:51;;;;;;;2.60;1.60;;;;;;;6.43;62.51;101153.67;117387;1176;21928;-55
2022/01/07 08:56:23;;;;;;;3.20;1.60;;;;;;;6.45;62.67;101158.42;117377;1183;21854;-56
2022/01/07 08:58:56;;;;;;;2.80;1.40;;;;;;;6.49;62.68;101161.45;117366;1186;23576;-65
2022/01/07 09:01:27;;;;;;;4.20;2.40;;;;;;;6.49;62.54;101165.48;117345;1185;21854;-56
2022/01/07 09:03:56;;;;;;;2.60;1.30;;;;;;;6.56;62.44;101168.20;117335;1185;21858;-56
2022/01/07 09:06:24;;;;;;;1.80;0.80;;;;;;;6.60;62.30;101176.66;117419;1186;23577;-64
2022/01/07 09:08:53;;;;;;;2.40;0.90;;;;;;;6.63;62.37;101180.87;117510;1186;23591;-66
2022/01/07 09:11:21;;;;;;;1.80;1.00;;;;;;;6.63;62.15;101178.95;117394;1185;21950;-56
2022/01/07 09:13:51;;;;;;;3.20;1.70;;;;;;;6.63;62.23;101181.04;117348;1185;23566;-55
2022/01/07 09:16:21;;;;;;;3.90;2.10;;;;;;;6.67;62.16;101177.79;117358;1185;21870;-56
2022/01/07 09:18:50;;;;;;;1.90;1.00;;;;;;;6.70;62.27;101169.48;117364;1185;21855;-67
2022/01/07 09:21:18;;;;;;;1.80;0.90;;;;;;;6.68;61.97;101161.59;117353;1185;21855;-56
2022/01/07 09:23:47;;;;;;;3.10;1.50;;;;;;;6.69;62.25;101157.08;117372;1185;21844;-57
2022/01/07 09:26:16;;;;;;;2.50;1.00;;;;;;;6.76;62.17;101160.33;117468;1186;22995;-57
2022/01/07 09:28:44;;;;;;;3.60;1.20;;;;;;;6.81;61.78;101159.90;117438;1185;23484;-56
2022/01/07 09:31:14;;;;;;;3.00;1.60;;;;;;;6.86;61.73;101160.11;117435;1183;21911;-66
2022/01/07 09:33:43;;;;;;;4.10;2.10;;;;;;;6.91;62.00;101156.90;117398;1185;21948;-55
2022/01/07 09:36:31;;;;;;;3.20;1.70;;;;;;;7.01;62.05;101161.41;117286;1184;24151;-66
2022/01/07 09:38:59;;;;;;;4.50;1.60;;;;;;;7.12;62.04;101159.83;117377;1185;22827;-56
2022/01/07 09:41:28;;;;;;;2.90;1.30;;;;;;;7.22;62.03;101157.70;117405;1183;22901;-56
2022/01/07 09:43:57;;;;;;;1.30;0.70;;;;;;;7.23;61.85;101157.89;117444;1182;21865;-57
2022/01/07 09:46:26;;;;;;;2.90;1.40;;;;;;;7.28;62.05;101156.55;117382;1182;21848;-64
2022/01/07 09:48:54;;;;;;;3.20;1.10;;;;;;;7.29;62.02;101159.19;117369;1185;21842;-57
2022/01/07 09:51:22;;;;;;;2.40;1.10;;;;;;;7.30;61.76;101156.94;117385;1185;21845;-56
2022/01/07 09:53:50;;;;;;;2.00;1.00;;;;;;;7.29;61.87;101154.98;117419;1186;24147;-66
2022/01/07 09:56:19;;;;;;;3.20;1.40;;;;;;;7.32;61.86;101154.15;117395;1185;23498;-56
2022/01/07 09:58:47;;;;;;;3.10;1.50;;;;;;;7.35;61.85;101159.79;117370;1183;23013;-66
2022/01/07 10:01:19;;;;;;;2.10;0.90;;;;;;;7.36;61.62;101156.14;117400;1186;23451;-66
2022/01/07 10:03:48;;;;;;;3.50;1.80;;;;;;;7.32;61.27;101154.16;117399;1186;22944;-65
2022/01/07 10:06:17;;;;;;;3.80;2.10;;;;;;;7.36;61.57;101152.81;117354;1186;21855;-57
2022/01/07 10:08:58;;;;;;;2.50;1.50;;;;;;;7.47;61.63;101156.81;117427;1181;21851;-56
2022/01/07 10:11:26;;;;;;;4.40;2.20;;;;;;;7.51;61.40;101158.08;117424;1183;24157;-56
2022/01/07 10:14:22;;;;;;;4.90;2.90;;;;;;;7.55;61.51;101154.98;117441;1186;21872;-56
2022/01/07 10:16:52;;;;;;;3.40;2.10;;;;;;;7.65;61.56;101154.95;117381;1185;22532;-65
2022/01/07 10:19:40;;;;;;;3.70;1.70;;;;;;;7.72;61.46;101154.66;117416;1186;23428;-66
2022/01/07 10:22:10;;;;;;;3.30;1.80;;;;;;;7.75;61.56;101148.93;117455;1185;21850;-67
2022/01/07 10:24:51;;;;;;;2.30;1.20;;;;;;;7.78;61.37;101150.55;117414;1182;23352;-55
2022/01/07 10:27:20;;;;;;;1.90;1.00;;;;;;;7.78;61.32;101161.71;117401;1182;23554;-56
2022/01/07 10:29:48;;;;;;;2.20;1.10;;;;;;;7.75;61.44;101165.34;117447;1186;23471;-67
2022/01/07 10:32:19;;;;;;;2.30;1.20;;;;;;;7.73;61.19;101163.77;117430;1183;23448;-57
2022/01/07 10:35:06;;;;;;;3.20;1.70;;;;;;;7.67;60.78;101165.10;117443;1185;22105;-56
2022/01/07 10:37:45;;;;;;;2.90;1.60;;;;;;;7.68;61.20;101165.80;117411;1186;22942;-67
2022/01/07 10:40:34;;;;;;;2.30;1.20;;;;;;;7.72;61.12;101169.52;117412;1183;23625;-54
2022/01/07 10:43:20;;;;;;;3.30;1.30;;;;;;;7.67;60.47;101169.98;117451;1182;22971;-65
2022/01/07 10:45:58;;;;;;;3.20;1.30;;;;;;;7.64;60.76;101164.52;117481;1176;23353;-64
2022/01/07 10:48:36;;;;;;;3.70;1.60;;;;;;;7.73;61.05;101156.27;117397;1186;21865;-55
2022/01/07 10:51:12;;;;;;;3.40;1.20;;;;;;;7.86;60.67;101155.19;117431;1186;21958;-65
2022/01/07 10:53:41;;;;;;;3.00;1.10;;;;;;;7.84;60.49;101156.20;117441;1186;21860;-56
2022/01/07 10:56:14;;;;;;;2.00;0.70;;;;;;;7.82;60.41;101157.56;117355;1184;21886;-55
2022/01/07 10:58:50;;;;;;;2.50;1.20;;;;;;;7.80;60.12;101163.48;117369;1184;21855;-55
2022/01/07 11:01:21;;;;;;;2.90;1.40;;;;;;;7.78;60.35;101170.80;117342;1186;21940;-56
2022/01/07 11:03:54;;;;;;;3.60;1.30;;;;;;;7.87;60.66;101168.98;117358;1186;21853;-55
2022/01/07 11:06:24;;;;;;;4.50;1.50;;;;;;;8.03;60.89;101174.95;117403;1186;21863;-56
2022/01/07 11:08:53;;;;;;;2.50;1.20;;;;;;;8.15;60.86;101173.50;117338;1185;21915;-55
2022/01/07 11:11:23;;;;;;;2.50;1.10;;;;;;;8.25;60.83;101174.63;117386;1185;22915;-56
2022/01/07 11:13:51;;;;;;;5.10;2.70;;;;;;;8.29;60.77;101168.55;117417;1185;21867;-56
2022/01/07 11:16:19;;;;;;;4.10;1.50;;;;;;;8.34;60.53;101171.25;117341;1186;21852;-56
2022/01/07 11:18:48;;;;;;;2.80;1.30;;;;;;;8.32;60.38;101166.85;117341;1185;22161;-56
2022/01/07 11:21:17;;;;;;;3.00;1.60;;;;;;;8.23;59.68;101172.86;117365;1186;21974;-56
2022/01/07 11:23:45;;;;;;;2.90;1.50;;;;;;;8.20;60.08;101177.90;117361;1186;23625;-65
2022/01/07 11:26:17;;;;;;;3.40;1.40;;;;;;;8.22;60.25;101179.50;117356;1186;22819;-56
2022/01/07 11:28:57;;;;;;;3.90;1.50;;;;;;;8.31;60.72;101177.34;117363;1183;22646;-55
2022/01/07 11:31:27;;;;;;;2.40;1.20;;;;;;;8.51;60.97;101166.33;117319;1185;22654;-56
2022/01/07 11:34:22;;;;;;;2.90;1.30;;;;;;;8.59;60.62;101167.30;117456;1186;24148;-56
2022/01/07 11:36:50;;;;;;;3.60;1.50;;;;;;;8.56;60.50;101172.17;117446;1183;23448;-65
2022/01/07 11:39:20;;;;;;;2.70;1.40;;;;;;;8.58;60.63;101178.48;117396;1186;23652;-65